Detall de PIREP

Printer-friendly versionPDF version

[2011/01/18 15:24:00]
Flight IATA:CT3312
Pilot Number:042
Company ICAO:CAT
Aircraft Type:B763/F
PAX:200
Departing Airport: LEZG
Destination Airport: LTBA
Alternate Airport:LTAC
Online: VATSIM
Route:PONEN UN870 BCN UN725 ORKUM UM603 EKI
Flight Level:F350
No Slew and time accel
No pause
Crash detect
Detect pilot in Cockpit between each 30 and 45 minutes
15:24 Zero fuel Weight: 244977 Lbs, Fuel Weight: 161204 Lbs
15:24 VATSIM:LEZG 181500Z VRB01KT 1100 R30R/P2000 R12R/1900N R30L/1900N BR OVC003 05/05 Q1026
15:24 VATSIM:LTBA 181450Z 09006KT 9999 SCT030 09/02 Q1024 NOSIG
15:25 VOICE CATALONIAN
15:28 Parking Brakes off
15:31 Take-off
15:31 Take off Weight: 404250 Lbs
15:31 Wind: 065 @ 000 Knots Heading: 300
15:31 POS N41 40 21 W001 03 53
15:31 Gear Up: 180 Knots
15:31 Flaps:3 at 180 Knots
15:31 Flaps:2 at 178 Knots
15:32 Flaps:1 at 180 Knots
15:32 Flaps:0 at 226 Knots
15:46 Wind:246@044 Knots Heading: 093 Ground Speed: 481 Knots Altitude 33244 ft
15:47 TOC
15:47 Fuel Weight: 150779 Lb
16:01 Wind:223@042 Knots Heading: 108 Ground Speed: 460 Knots Altitude 35347 ft
16:16 Wind:230@036 Knots Heading: 100 Ground Speed: 466 Knots Altitude 35341 ft
16:31 Wind:259@031 Knots Heading: 083 Ground Speed: 473 Knots Altitude 36341 ft
16:46 Wind:257@031 Knots Heading: 085 Ground Speed: 473 Knots Altitude 36345 ft
17:01 Wind:270@022 Knots Heading: 111 Ground Speed: 462 Knots Altitude 36299 ft
17:16 Wind:280@028 Knots Heading: 087 Ground Speed: 472 Knots Altitude 36309 ft
17:31 Wind:280@020 Knots Heading: 089 Ground Speed: 460 Knots Altitude 36315 ft
17:46 Wind:312@023 Knots Heading: 093 Ground Speed: 457 Knots Altitude 36299 ft
18:01 Wind:327@030 Knots Heading: 074 Ground Speed: 447 Knots Altitude 36322 ft
18:16Wind:323@024 Knots Heading: 077 Ground Speed: 447 Knots Altitude 36309 ft
18:19 TOD
18:19 Fuel Weight: 121454 Lb
18:31 Wind:013@023 Knots Heading: 100 Ground Speed: 330 Knots Altitude 16108 ft
18:38 Flaps:1 at 229 Knots
18:38 Flaps:2 at 210 Knots
18:39 Flaps:3 at 188 Knots
18:43 Flaps:4 at 161 Knots
18:44 Gear Down: 157 Knots
18:46 Wind:060@005 Knots Heading: 000 Ground Speed: 173 Knots Altitude 2801 ft
18:46 Flaps:5 at 170 Knots
18:51 TouchDown:Rate -140 ft/min Speed: 143 Knots
18:51 VATSIM:LTBA 181820Z 36005KT 340V040 CAVOK 06/01 Q1024 NOSIG
18:51 Land
18:51 Wind:033@005 Knots
18:51 Heading: 359
18:51 Flight Duration: 03:20
18:51 Landing Weight: 362122 Lbs
18:51 POS N40 59 00 E028 48 24
18:52 Parking brakes on
18:52 Block to Block Duration: 03:24
18:52 Final Fuel: 117063 Lbls
18:52 Spent Fuel: 44140 Lbls
18:52 Flight Length: 1292 NM
18:52 TOD Land Length: 133 NM

Exportar CSV

Powered by Drupal - Modified by Danger4k